Flight Track Log - Related Links

Times and Time Zones

All times are in EDT time to prevent confusion due to time zone crossing. See the N240JK flight status page for this flight to view local times or setup timezone preferences in your user account.

Time Position Orientation Groundspeed Altitude Reporting Facility
EDT Latitude Longitude Course Direction KTS MPH feet Rate Location/Type
Wed 11:02:54 27.9000 -82.6833 252° West 194 223 600  Level Tampa TRACON
Wed 11:04:24 27.8667 -82.8000 252° West 256 295 2,400 1,903 Climbing Tampa TRACON
Wed 11:05:19 27.8667 -82.8667 270° West 270 311 5,200 3,026 Climbing Tampa TRACON
Wed 11:06:19 27.8833 -82.9500 283° West 283 326 8,200 2,010 Climbing Tampa TRACON
Wed 11:08:39 28.0769 -82.8925 15° North 311 358 11,900 1,770 Climbing Jacksonville Center
Wed 11:09:39 28.1853 -82.8525 18° North 345 397 14,100 2,500 Climbing Jacksonville Center
Wed 11:10:39 28.2856 -82.8147 18° North 367 422 16,900 1,450 Climbing Jacksonville Center
Wed 11:11:39 28.3897 -82.7769 18° North 378 435 17,000 100 Climbing Jacksonville Center
Wed 11:12:39 28.5047 -82.7414 15° North 403 464 17,100 650 Climbing Jacksonville Center
Wed 11:13:39 28.6194 -82.7814 343° North 408 470 18,300 1,500 Climbing Jacksonville Center
Wed 11:14:39 28.7217 -82.8169 343° North 408 470 20,100 2,300 Climbing Jacksonville Center
Wed 11:15:39 28.8364 -82.8547 344° North 415 478 22,900 2,800 Climbing Jacksonville Center
Wed 11:16:39 28.9472 -82.8950 342° North 415 478 25,700 1,700 Climbing Jacksonville Center
Wed 11:17:39 29.0642 -82.9331 344° North 425 489 26,300 1,050 Climbing Jacksonville Center
Wed 11:18:39 29.1872 -82.9733 344° North 437 503 27,800 1,700 Climbing Jacksonville Center
Wed 11:19:39 29.3083 -83.0069 346° North 443 510 29,700 1,600 Climbing Jacksonville Center
Wed 11:20:39 29.4314 -83.0428 346° North 449 517 31,000 1,650 Climbing Jacksonville Center
Wed 11:21:39 29.5608 -83.0836 345° North 465 535 33,000 2,050 Climbing Jacksonville Center
Wed 11:22:39 29.6817 -83.0933 356° North 453 521 35,100 2,100 Climbing Jacksonville Center
Wed 11:23:39 29.8008 -83.0936 360° North 440 506 37,200 2,100 Climbing Jacksonville Center
Wed 11:24:39 29.9178 -83.0939 360° North 428 493 39,300 1,400 Climbing Jacksonville Center
Wed 11:25:39 30.0303 -83.1397 341° North 405 466 40,000 350 Climbing Jacksonville Center
Wed 11:26:39 30.1367 -83.1783 343° North 393 452 40,000  Level Jacksonville Center
Wed 11:27:39 30.2453 -83.2194 342° North 398 458 40,000  Level Jacksonville Center
Wed 11:28:39 30.3494 -83.2586 342° North 398 458 40,000  Level Jacksonville Center
Wed 11:29:39 30.4558 -83.2997 342° North 403 464 40,000  Level Jacksonville Center
Wed 11:30:39 30.5642 -83.3436 341° North 403 464 40,000  Level Jacksonville Center
Wed 11:31:39 30.6706 -83.3828 342° North 403 464 40,000  Level Jacksonville Center
Wed 11:32:39 30.7769 -83.4244 341° North 403 464 40,000  Level Jacksonville Center
Wed 11:33:39 30.8667 -83.4639 339° North 398 458 40,000  Level Jacksonville Center
Wed 11:34:39 30.9750 -83.5081 341° North 398 458 40,000  Level Jacksonville Center
Wed 11:35:40 31.0853 -83.5525 341° North 408 470 40,000  Level Jacksonville Center
Wed 11:38:15 31.3683 -83.6644 341° North 407 468 40,000  Level Atlanta Center
Wed 11:39:15 31.4747 -83.7078 341° North 407 468 40,000  Level Atlanta Center
Wed 11:40:15 31.5856 -83.7536 341° North 413 475 40,000  Level Atlanta Center
Wed 11:41:15 31.6942 -83.7947 342° North 413 475 40,000  Level Atlanta Center
Wed 11:42:15 31.8278 -83.8483 341° North 429 494 40,000  Level Atlanta Center
Wed 11:43:15 31.9344 -83.8919 341° North 429 494 40,000  Level Atlanta Center
Wed 11:44:15 32.0450 -83.9358 341° North 424 488 40,000  Level Atlanta Center
Wed 11:45:15 32.1536 -83.9800 341° North 418 481 40,000  Level Atlanta Center
Wed 11:46:15 32.2642 -84.0242 341° North 418 481 40,000  Level Atlanta Center
Wed 11:47:15 32.3769 -84.0708 341° North 418 481 40,000  Level Atlanta Center
Wed 11:48:15 32.4875 -84.1178 340° North 423 487 40,000  Level Atlanta Center
Wed 11:49:15 32.5981 -84.1622 341° North 423 487 40,000  Level Atlanta Center
Wed 11:50:15 32.7108 -84.2092 341° North 423 487 40,000  Level Atlanta Center
Wed 11:51:15 32.8214 -84.2514 342° North 428 493 40,000  Level Atlanta Center
Wed 11:52:15 32.9403 -84.2789 349° North 422 486 40,000  Level Atlanta Center
Wed 11:53:15 33.0592 -84.3064 349° North 427 491 40,000  Level Atlanta Center
Wed 11:54:15 33.1803 -84.3342 349° North 436 502 40,000  Level Atlanta Center
Wed 11:55:15 33.2992 -84.3619 349° North 436 502 40,000  Level Atlanta Center
Wed 11:56:15 33.4181 -84.3897 349° North 436 502 40,000  Level Atlanta Center
Wed 11:57:15 33.5392 -84.4150 350° North 431 496 40,000  Level Atlanta Center
Wed 11:58:15 33.6578 -84.4506 346° North 431 496 40,000  Level Atlanta Center
Wed 11:59:15 33.7706 -84.5011 340° North 425 489 40,000  Level Atlanta Center
Wed 12:00:15 33.8683 -84.5417 341° North 431 496 40,000  Level Atlanta Center
Wed 12:01:15 33.9831 -84.5925 340° North 431 496 40,000  Level Atlanta Center
Wed 12:02:15 34.0953 -84.6433 339° North 431 496 40,000  Level Atlanta Center
Wed 12:03:15 34.2225 -84.6994 340° North 443 510 40,000  Level Atlanta Center
Wed 12:04:15 34.3328 -84.7481 340° North 426 490 40,000  Level Atlanta Center
Wed 12:05:15 34.4411 -84.7969 340° North 426 490 40,000  Level Atlanta Center
Wed 12:06:15 34.5556 -84.8458 341° North 426 490 40,000  Level Atlanta Center
Wed 12:07:15 34.6533 -84.8897 340° North 426 490 40,000  Level Atlanta Center
Wed 12:08:15 34.7697 -84.9467 338° Northwest 420 483 40,000  Level Atlanta Center
Wed 12:09:15 34.8800 -84.9983 339° North 420 483 40,000  Level Atlanta Center
Wed 12:10:15 34.9903 -85.0478 340° North 420 483 40,000  Level Atlanta Center
Wed 12:11:15 35.1025 -85.0975 340° North 420 483 40,000  Level Atlanta Center
Wed 12:12:15 35.2125 -85.1472 340° North 420 483 40,000  Level Atlanta Center
Wed 12:13:15 35.3247 -85.1994 339° North 426 490 40,000  Level Atlanta Center
Wed 12:14:15 35.4369 -85.2494 340° North 426 490 40,000  Level Atlanta Center
Wed 12:16:29 35.6881 -85.3633 340° North 437 503 40,000  Level Indianapolis Center
Wed 12:16:44 35.7103 -85.3767 334° Northwest 438 504 40,000  Level Memphis Center
Wed 12:17:44 35.8231 -85.4286 340° North 438 504 40,000  Level Memphis Center
Wed 12:18:44 35.9375 -85.4808 340° North 438 504 40,000  Level Memphis Center
Wed 12:19:44 36.0503 -85.5358 338° Northwest 438 504 40,000  Level Memphis Center
Wed 12:20:44 36.1628 -85.5883 339° North 438 504 40,000  Level Memphis Center
Wed 12:21:44 36.2836 -85.6431 340° North 438 504 40,000  Level Memphis Center
Wed 12:22:44 36.3983 -85.6981 339° North 438 504 40,000  Level Memphis Center
Wed 12:23:44 36.5128 -85.7508 340° North 438 504 40,000  Level Memphis Center
Wed 12:24:44 36.6233 -85.8042 339° North 438 504 40,000  Level Memphis Center
Wed 12:25:44 36.7419 -85.8569 340° North 444 511 40,000  Level Memphis Center
Wed 12:26:44 36.8542 -85.9103 339° North 438 504 40,000  Level Memphis Center
Wed 12:28:48 37.0833 -86.0194 339° North 447 514 40,000  Level Indianapolis Center
Wed 12:30:00 37.2086 -86.0744 341° North  Level FlightAware Approximate
Wed 12:30:51 37.3139 -86.1303 341° North 440 506 40,000  Level Indianapolis Center
Wed 12:31:52 37.4294 -86.1858 339° North 440 506 40,000  Level Indianapolis Center
Wed 12:32:54 37.5464 -86.2428 339° North 444 511 40,000  Level Indianapolis Center
Wed 12:33:56 37.6814 -86.3086 339° North 442 509 40,000  Level Indianapolis Center
Wed 12:34:57 37.7975 -86.3653 339° North 443 510 40,000  Level Indianapolis Center
Wed 12:35:59 37.9014 -86.4178 338° Northwest 443 510 40,000  Level Indianapolis Center
Wed 12:37:00 38.0178 -86.4761 338° Northwest 448 516 40,000  Level Indianapolis Center
Wed 12:38:02 38.1597 -86.5461 339° North 457 526 40,000  Level Indianapolis Center
Wed 12:39:04 38.2747 -86.6017 339° North 447 514 40,000  Level Indianapolis Center
Wed 12:40:05 38.3917 -86.6600 339° North 453 521 40,000  Level Indianapolis Center
Wed 12:41:07 38.5072 -86.7183 338° Northwest 452 520 40,000  Level Indianapolis Center
Wed 12:42:08 38.6211 -86.7761 338° Northwest 444 511 40,000  Level Indianapolis Center
Wed 12:43:10 38.7353 -86.8339 338° Northwest 441 507 40,000  Level Indianapolis Center
Wed 12:44:11 38.8461 -86.8903 338° Northwest 431 496 40,000  Level Indianapolis Center
Wed 12:45:13 38.9778 -86.9583 338° Northwest 425 489 40,000  Level Indianapolis Center
Wed 12:46:15 39.0883 -87.0136 339° North 425 489 40,000  Level Indianapolis Center
Wed 12:47:16 39.1975 -87.0700 338° Northwest 422 486 40,000  Level Indianapolis Center
Wed 12:48:18 39.3069 -87.1244 339° North 421 484 40,000  Level Indianapolis Center
Wed 12:49:19 39.4139 -87.1797 338° Northwest 414 476 40,000  Level Indianapolis Center
Wed 12:50:21 39.5225 -87.2367 338° Northwest 418 481 40,000  Level Indianapolis Center
Wed 12:51:22 39.6300 -87.2931 338° Northwest 418 481 40,000  Level Indianapolis Center
Wed 12:52:24 39.7381 -87.3500 338° Northwest 418 481 40,000  Level Indianapolis Center
Wed 12:53:26 39.8467 -87.4044 339° North 416 479 40,000  Level Indianapolis Center
Wed 12:54:27 39.9531 -87.4608 338° Northwest 414 476 40,000  Level Indianapolis Center
Wed 12:55:29 40.0853 -87.5311 338° Northwest 423 487 40,000  Level Indianapolis Center
Wed 12:56:10 40.1564 -87.5692 338° Northwest 425 489 40,000  Level Chicago Center
Wed 12:57:11 40.2656 -87.6269 338° Northwest 425 489 40,000  Level Chicago Center
Wed 12:57:32 40.3036 -87.6450 340° North 419 482 40,000 -1,683 Level Indianapolis Center
Wed 12:58:33 40.4139 -87.7022 338° Northwest 422 486 37,700 -2,471 Descending Indianapolis Center
Wed 12:59:14 40.4836 -87.7431 336° Northwest 430 495 35,800 -2,621 Descending Chicago Center
Wed 13:00:16 40.6014 -87.8053 338° Northwest 454 522 33,200 -1,854 Descending Chicago Center
Wed 13:01:17 40.7158 -87.8672 338° Northwest 451 519 32,000 -585 Descending Chicago Center
Wed 13:02:19 40.8561 -87.9419 338° Northwest 452 520 32,000  Level Chicago Center
Wed 13:03:20 40.9781 -88.0078 338° Northwest 470 541 32,000  Level Chicago Center
Wed 13:04:22 41.1003 -88.0733 338° Northwest 473 544 32,000 -341 Level Chicago Center
Wed 13:05:23 41.2217 -88.1403 337° Northwest 472 543 31,300 -1,073 Descending Chicago Center
Wed 13:06:25 41.3450 -88.2064 338° Northwest 470 541 29,800 -1,610 Descending Chicago Center
Wed 13:07:26 41.4689 -88.2756 337° Northwest 472 543 28,000 -1,854 Descending Chicago Center
Wed 13:08:28 41.5983 -88.3167 347° North 485 558 26,000 -1,887 Descending Chicago Center
Wed 13:09:30 41.7303 -88.3150 North 472 543 24,100 -1,659 Descending Chicago Center
Wed 13:10:31 41.8511 -88.3139 360° North 435 501 22,600 -1,463 Descending Chicago Center
Wed 13:11:33 41.9644 -88.3133 360° North 411 473 21,100 -2,195 Descending Chicago Center
Wed 13:12:34 42.0986 -88.3136 360° North 401 461 18,100 -2,049 Descending Chicago Center
Wed 13:13:36 42.2036 -88.3114 North 381 438 16,900 -871 Descending Chicago Center
Wed 13:14:38 42.3072 -88.3114 360° North 374 430 16,300 -1,366 Descending Chicago Center
Wed 13:15:39 42.4147 -88.3103 360° North 371 427 14,100 -2,000 Descending Chicago Center
Wed 13:16:41 42.5094 -88.3075 North 345 397 12,200 -1,902 Descending Chicago Center
Wed 13:17:42 42.6000 -88.3069 360° North 328 377 10,200 -1,951 Descending Chicago Center
Wed 13:18:44 42.6831 -88.3281 349° North 308 354 8,200 -2,032 Descending Chicago Center
Wed 13:19:46 42.7592 -88.3631 341° North 291 335 6,000 -1,610 Descending Chicago Center
Wed 13:20:47 42.8292 -88.4006 339° North 272 313 4,900 -1,366 Descending Chicago Center
Wed 13:21:49 42.9019 -88.4444 336° Northwest 253 291 3,200 -919 Descending Chicago Center
Wed 13:22:51 42.9606 -88.4864 332° Northwest 243 280 3,000 -49 Descending Chicago Center
Wed 13:23:52 43.0186 -88.4933 355° North 227 261 3,100  Climbing Chicago Center
Wed 13:24:54 43.0611 -88.4628 28° Northeast 194 223 3,000 -48 Descending Chicago Center
Wed 13:25:56 43.0667 -88.4050 82° East 164 189 3,000 -195 Level Chicago Center
Wed 13:26:57 43.0592 -88.3511 101° East 153 176 2,600 -585 Descending Chicago Center
Wed 13:27:59 43.0500 -88.2986 103° East 133 153 1,800 -677 Descending Chicago Center
Wed 13:29:01 43.0447 -88.2597 101° East 128 147 1,200 -581 Descending Chicago Center

Login

Don't have an account? Register now (free) for customized features, flight alerts, and more!